Kitty C — 2EIQ6 — position and weather

sailwx.info

Track history (hours):
 
Tides and Currents Weather Stations Pressure Air Temp Water Temp Dewpoint Dewpoint Depression Visibility Wind Speed Wind Dir Waves Ship Positions

Kitty C

Last reported at 2014-Sep-13 19:33 UTC. Time now 2014-Sep-17 03:36 UTC.
Position N 47°43' W 006°43'.

Length 106 m; draft 6.7 m.

Type: Cargo ship. MMSI: 235085464.

Date/timePositionNaut miles runAvg speedWind from/ knotsBaromVisibWave heightAir tempDewpointWater temp
2014-Sep-13 19:33N 47°43' W 006°43'18 9.1
2014-Sep-13 17:33N 47°60' W 006°31'26 8.8
2014-Sep-13 14:33N 48°23' W 006°13'10 9.9
2014-Sep-13 13:33N 48°32' W 006°06'1111.3
2014-Sep-13 12:33N 48°42' W 005°58'1111.1
2014-Sep-13 11:33N 48°52' W 005°50'1110.9
2014-Sep-13 10:34N 48°57' W 005°36'1010.1
2014-Sep-13 09:33N 49°03' W 005°22'24210.1
2014-Sep-12 09:32N 50°35' E 000°24'9 9.7
2014-Sep-12 08:33N 50°39' E 000°37'1211.6
2014-Sep-12 07:34N 50°46' E 000°51'2611.3
2014-Sep-12 05:14N 51°02' E 001°24'6 9.2
2014-Sep-12 04:33N 51°07' E 001°31'7 6.9
2014-Sep-12 03:34N 51°12' E 001°37'6 6.4
2014-Sep-12 02:34N 51°18' E 001°41'7 7.3
2014-Sep-12 01:34N 51°25' E 001°44'10 9.7
2014-Sep-12 00:34N 51°35' E 001°44'1111.1
2014-Sep-11 23:34N 51°46' E 001°43'1111.1
2014-Sep-11 22:34N 51°57' E 001°45'1312.7
2014-Sep-11 21:34N 52°10' E 001°47'1412.5
2014-Sep-11 20:28N 52°23' E 001°49'1111.6
2014-Sep-11 19:34N 52°34' E 001°47'2 2.1
2014-Sep-11 18:34N 52°35' E 001°44'0 0.0
2014-Sep-11 17:33N 52°35' E 001°44'0 0.0
2014-Sep-11 16:33N 52°35' E 001°44'0 0.0
2014-Sep-11 15:33N 52°35' E 001°44'0 0.0
2014-Sep-11 14:33N 52°35' E 001°44'0 0.0
2014-Sep-11 13:33N 52°35' E 001°44'0 0.0
2014-Sep-11 12:33N 52°35' E 001°44'0 0.0
2014-Sep-11 11:33N 52°35' E 001°44'0 0.0
2014-Sep-11 10:33N 52°35' E 001°44'0 0.0
2014-Sep-11 09:33N 52°35' E 001°44'0 0.0
2014-Sep-11 08:33N 52°35' E 001°44'0 0.0
2014-Sep-11 07:33N 52°35' E 001°44'0 0.0
2014-Sep-11 06:33N 52°35' E 001°44'0 0.0
2014-Sep-11 05:33N 52°35' E 001°44'0 0.0
2014-Sep-11 04:33N 52°35' E 001°44'0 0.0
2014-Sep-11 03:33N 52°35' E 001°44'0 0.0
2014-Sep-11 02:33N 52°35' E 001°44'0 0.0
2014-Sep-11 01:33N 52°35' E 001°44'0 0.0
2014-Sep-11 00:33N 52°35' E 001°44'0 0.0
2014-Sep-10 23:33N 52°35' E 001°44'0 0.0
2014-Sep-10 22:33N 52°35' E 001°44'0 0.0
2014-Sep-10 21:33N 52°35' E 001°44'0 0.0
2014-Sep-10 20:33N 52°35' E 001°44'0 0.0
2014-Sep-10 19:33N 52°35' E 001°44'0 0.0
2014-Sep-10 18:33N 52°35' E 001°44'0 0.0
2014-Sep-10 17:33N 52°35' E 001°44'0 0.0
2014-Sep-10 16:33N 52°35' E 001°44'0 0.0
2014-Sep-10 15:33N 52°35' E 001°44'0 0.0
2014-Sep-10 14:33N 52°35' E 001°44'0 0.0
2014-Sep-10 13:33N 52°35' E 001°44'0 0.0
2014-Sep-10 12:33N 52°35' E 001°44'0 0.0
2014-Sep-10 11:33N 52°35' E 001°44'0 0.0
2014-Sep-10 10:33N 52°35' E 001°44'0 0.0
2014-Sep-10 09:33N 52°35' E 001°44'0 0.0
2014-Sep-10 08:33N 52°35' E 001°44'1 1.0
2014-Sep-10 07:34N 52°35' E 001°46'8 7.9
2014-Sep-10 06:33N 52°43' E 001°47'8 7.5
2014-Sep-10 05:32N 52°49' E 001°40'9 9.1
2014-Sep-10 04:34N 52°56' E 001°31'9 9.4
2014-Sep-10 03:33N 53°03' E 001°21'9 8.7
2014-Sep-10 02:33N 53°10' E 001°12'34 8.3
2014-Sep-09 22:25N 53°29' E 000°24'6 6.8
2014-Sep-09 21:33N 53°32' E 000°16'1111.3
2014-Sep-09 20:33N 53°36' W 000°02'1212.2
2014-Sep-09 19:33N 53°44' W 000°16'0 0.4
2014-Sep-09 18:33N 53°45' W 000°16'0 0.0
2014-Sep-09 17:15N 53°45' W 000°16'0 0.0
2014-Sep-09 16:30N 53°45' W 000°16'0 0.0
2014-Sep-09 14:27N 53°45' W 000°16'0 0.0
2014-Sep-09 13:33N 53°45' W 000°16'0 0.0
2014-Sep-09 12:24N 53°45' W 000°16'0 0.0
2014-Sep-09 11:33N 53°45' W 000°16'0 0.0
2014-Sep-09 10:33N 53°45' W 000°16'0 0.0
2014-Sep-09 09:21N 53°45' W 000°16'0 0.0
2014-Sep-09 08:21N 53°45' W 000°16'0 0.0
2014-Sep-09 07:27N 53°45' W 000°16'0 0.0
2014-Sep-09 06:27N 53°45' W 000°16'0 0.0
2014-Sep-09 04:30N 53°45' W 000°16'0 0.0
2014-Sep-09 03:24N 53°45' W 000°16'0 0.0
2014-Sep-09 02:18N 53°45' W 000°16'0 0.0
2014-Sep-09 01:33N 53°45' W 000°16'0 0.0
2014-Sep-09 00:27N 53°45' W 000°16'0 0.0
2014-Sep-08 23:33N 53°45' W 000°16'0 0.0
2014-Sep-08 22:30N 53°45' W 000°16'0 0.0
2014-Sep-08 21:34N 53°45' W 000°16'0 0.0
2014-Sep-08 20:06N 53°45' W 000°16'0 0.0
2014-Sep-08 18:21N 53°45' W 000°16'0 0.0
2014-Sep-08 17:18N 53°45' W 000°16'0 0.0
2014-Sep-08 16:06N 53°45' W 000°16'0 0.0
2014-Sep-08 15:27N 53°45' W 000°16'0 0.0
2014-Sep-08 14:24N 53°45' W 000°16'0 0.0
2014-Sep-08 13:24N 53°45' W 000°16'0 0.0
2014-Sep-08 12:27N 53°45' W 000°16'0 0.0
2014-Sep-08 11:15N 53°45' W 000°16'0 0.0
2014-Sep-08 10:24N 53°45' W 000°16'0 0.0
2014-Sep-08 09:30N 53°45' W 000°16'0 0.0
2014-Sep-08 08:30N 53°45' W 000°16'0 0.0
2014-Sep-08 07:06N 53°45' W 000°16'0 0.0
2014-Sep-08 06:24N 53°45' W 000°16'0 0.0
2014-Sep-08 05:33N 53°45' W 000°16'0 0.0
2014-Sep-08 04:33N 53°45' W 000°16'0 0.0
2014-Sep-08 03:27N 53°45' W 000°16'0 0.0
2014-Sep-08 02:24N 53°45' W 000°16'0 0.0
2014-Sep-08 01:27N 53°45' W 000°16'0 0.0
2014-Sep-08 00:27N 53°45' W 000°16'0 0.0
2014-Sep-07 23:27N 53°45' W 000°16'0 0.0
2014-Sep-07 22:06N 53°45' W 000°16'0 0.0
2014-Sep-07 21:15N 53°45' W 000°16'0 0.0
2014-Sep-07 20:15N 53°45' W 000°16'0 0.0
2014-Sep-07 19:33N 53°45' W 000°16'0 0.0
2014-Sep-07 18:30N 53°45' W 000°16'0 0.0
2014-Sep-07 17:21N 53°45' W 000°16'0 0.0
2014-Sep-07 16:33N 53°45' W 000°16'0 0.0
2014-Sep-07 15:26N 53°45' W 000°16'0 0.0
2014-Sep-07 14:32N 53°45' W 000°16'0 0.2
2014-Sep-07 13:33N 53°45' W 000°16'2 2.0
2014-Sep-07 12:33N 53°43' W 000°14'1010.1
2014-Sep-07 11:33N 53°37' W 000°01'10 9.8
2014-Sep-07 10:34N 53°33' E 000°15'7 6.5
2014-Sep-07 09:34N 53°35' E 000°25'0 0.0
2014-Sep-07 08:34N 53°35' E 000°25'0 0.0
2014-Sep-07 07:34N 53°35' E 000°25'0 0.0
2014-Sep-07 06:33N 53°35' E 000°25'0 0.1
2014-Sep-07 05:34N 53°35' E 000°25'0 0.1
2014-Sep-07 04:33N 53°35' E 000°25'0 0.1
2014-Sep-07 03:34N 53°35' E 000°25'5 4.9
2014-Sep-07 02:33N 53°35' E 000°33'151 9.2
2014-Sep-06 10:09N 54°04' E 004°45'80 9.0
2014-Sep-06 01:19N 54°12' E 007°00'810.0
2014-Sep-06 00:33N 54°12' E 007°13'1010.2
2014-Sep-05 23:33N 54°13' E 007°31'1010.1
2014-Sep-05 22:33N 54°08' E 007°46'1010.0
2014-Sep-05 21:34N 54°03' E 008°00'10 9.7
2014-Sep-05 20:31N 53°60' E 008°17'1010.3
2014-Sep-05 19:33N 53°58' E 008°34'8 8.3
2014-Sep-05 18:34N 53°52' E 008°44'8 7.6
2014-Sep-05 17:33N 53°51' E 008°56'8 7.8
2014-Sep-05 16:33N 53°54' E 009°09'3 2.9
2014-Sep-05 15:33N 53°56' E 009°12'8 7.8
2014-Sep-05 14:33N 54°03' E 009°18'7 6.6
2014-Sep-05 13:33N 54°09' E 009°22'1 1.2
2014-Sep-05 12:32N 54°10' E 009°24'7 7.3
2014-Sep-05 11:32N 54°13' E 009°35'68 6.9
2014-Sep-05 01:33N 54°31' E 011°28'1110.7
2014-Sep-05 00:32N 54°27' E 011°45'1010.6
2014-Sep-04 23:33N 54°27' E 012°03'9 9.4
2014-Sep-04 22:33N 54°32' E 012°15'1110.9
2014-Sep-04 21:33N 54°37' E 012°32'1010.3
2014-Sep-04 20:34N 54°41' E 012°49'1110.5
2014-Sep-04 19:33N 54°42' E 013°07'1110.5
2014-Sep-04 18:33N 54°44' E 013°25'9 8.6
2014-Sep-04 17:34N 54°41' E 013°39'10 9.9
2014-Sep-04 16:34N 54°33' E 013°47'1010.0
2014-Sep-04 15:34N 54°23' E 013°51'7 6.9
2014-Sep-04 14:34N 54°17' E 013°45'8 8.2
2014-Sep-04 13:34N 54°11' E 013°35'3 3.3
2014-Sep-04 12:33N 54°08' E 013°34'0 0.0
2014-Sep-04 11:31N 54°08' E 013°34'0 0.0
2014-Sep-04 10:31N 54°08' E 013°34'0 0.0
2014-Sep-04 09:31N 54°08' E 013°34'0 0.0
2014-Sep-04 08:31N 54°08' E 013°34'0 0.0
2014-Sep-04 07:31N 54°08' E 013°34'0 0.0
2014-Sep-04 06:31N 54°08' E 013°34'0 0.0
2014-Sep-04 05:31N 54°08' E 013°34'0 0.0
2014-Sep-04 04:31N 54°08' E 013°34'0 0.0
2014-Sep-04 03:31N 54°08' E 013°34'0 0.0
2014-Sep-04 02:31N 54°08' E 013°34'0 0.0
2014-Sep-04 01:31N 54°08' E 013°34'0 0.0
2014-Sep-04 00:31N 54°08' E 013°34'0 0.0
2014-Sep-03 23:31N 54°08' E 013°34'0 0.0
2014-Sep-03 22:31N 54°08' E 013°34'0 0.0
2014-Sep-03 21:31N 54°08' E 013°34'0 0.0
2014-Sep-03 20:31N 54°08' E 013°34'  
Track history (hours):
 
Tides and Currents Weather Stations Pressure Air Temp Water Temp Dewpoint Dewpoint Depression Visibility Wind Speed Wind Dir Waves Ship Positions

Kitty C

Last reported at 2014-Sep-13 19:33 UTC. Time now 2014-Sep-17 03:36 UTC.
Position N 47°43' W 006°43'.

Length 106 m; draft 6.7 m.

Type: Cargo ship. MMSI: 235085464.

Date/timePositionNaut miles runAvg speedWind from/ knotsBaromVisibWave heightAir tempDewpointWater temp
2014-Sep-13 19:33N 47°43' W 006°43'18 9.1
2014-Sep-13 17:33N 47°60' W 006°31'26 8.8
2014-Sep-13 14:33N 48°23' W 006°13'10 9.9
2014-Sep-13 13:33N 48°32' W 006°06'1111.3
2014-Sep-13 12:33N 48°42' W 005°58'1111.1
2014-Sep-13 11:33N 48°52' W 005°50'1110.9
2014-Sep-13 10:34N 48°57' W 005°36'1010.1
2014-Sep-13 09:33N 49°03' W 005°22'24210.1
2014-Sep-12 09:32N 50°35' E 000°24'9 9.7
2014-Sep-12 08:33N 50°39' E 000°37'1211.6
2014-Sep-12 07:34N 50°46' E 000°51'2611.3
2014-Sep-12 05:14N 51°02' E 001°24'6 9.2
2014-Sep-12 04:33N 51°07' E 001°31'7 6.9
2014-Sep-12 03:34N 51°12' E 001°37'6 6.4
2014-Sep-12 02:34N 51°18' E 001°41'7 7.3
2014-Sep-12 01:34N 51°25' E 001°44'10 9.7
2014-Sep-12 00:34N 51°35' E 001°44'1111.1
2014-Sep-11 23:34N 51°46' E 001°43'1111.1
2014-Sep-11 22:34N 51°57' E 001°45'1312.7
2014-Sep-11 21:34N 52°10' E 001°47'1412.5
2014-Sep-11 20:28N 52°23' E 001°49'1111.6
2014-Sep-11 19:34N 52°34' E 001°47'2 2.1
2014-Sep-11 18:34N 52°35' E 001°44'0 0.0
2014-Sep-11 17:33N 52°35' E 001°44'0 0.0
2014-Sep-11 16:33N 52°35' E 001°44'0 0.0
2014-Sep-11 15:33N 52°35' E 001°44'0 0.0
2014-Sep-11 14:33N 52°35' E 001°44'0 0.0
2014-Sep-11 13:33N 52°35' E 001°44'0 0.0
2014-Sep-11 12:33N 52°35' E 001°44'0 0.0
2014-Sep-11 11:33N 52°35' E 001°44'0 0.0
2014-Sep-11 10:33N 52°35' E 001°44'0 0.0
2014-Sep-11 09:33N 52°35' E 001°44'0 0.0
2014-Sep-11 08:33N 52°35' E 001°44'0 0.0
2014-Sep-11 07:33N 52°35' E 001°44'0 0.0
2014-Sep-11 06:33N 52°35' E 001°44'0 0.0
2014-Sep-11 05:33N 52°35' E 001°44'0 0.0
2014-Sep-11 04:33N 52°35' E 001°44'0 0.0
2014-Sep-11 03:33N 52°35' E 001°44'0 0.0
2014-Sep-11 02:33N 52°35' E 001°44'0 0.0
2014-Sep-11 01:33N 52°35' E 001°44'0 0.0
2014-Sep-11 00:33N 52°35' E 001°44'0 0.0
2014-Sep-10 23:33N 52°35' E 001°44'0 0.0
2014-Sep-10 22:33N 52°35' E 001°44'0 0.0
2014-Sep-10 21:33N 52°35' E 001°44'0 0.0
2014-Sep-10 20:33N 52°35' E 001°44'0 0.0
2014-Sep-10 19:33N 52°35' E 001°44'0 0.0
2014-Sep-10 18:33N 52°35' E 001°44'0 0.0
2014-Sep-10 17:33N 52°35' E 001°44'0 0.0
2014-Sep-10 16:33N 52°35' E 001°44'0 0.0
2014-Sep-10 15:33N 52°35' E 001°44'0 0.0
2014-Sep-10 14:33N 52°35' E 001°44'0 0.0
2014-Sep-10 13:33N 52°35' E 001°44'0 0.0
2014-Sep-10 12:33N 52°35' E 001°44'0 0.0
2014-Sep-10 11:33N 52°35' E 001°44'0 0.0
2014-Sep-10 10:33N 52°35' E 001°44'0 0.0
2014-Sep-10 09:33N 52°35' E 001°44'0 0.0
2014-Sep-10 08:33N 52°35' E 001°44'1 1.0
2014-Sep-10 07:34N 52°35' E 001°46'8 7.9
2014-Sep-10 06:33N 52°43' E 001°47'8 7.5
2014-Sep-10 05:32N 52°49' E 001°40'9 9.1
2014-Sep-10 04:34N 52°56' E 001°31'9 9.4
2014-Sep-10 03:33N 53°03' E 001°21'9 8.7
2014-Sep-10 02:33N 53°10' E 001°12'34 8.3
2014-Sep-09 22:25N 53°29' E 000°24'6 6.8
2014-Sep-09 21:33N 53°32' E 000°16'1111.3
2014-Sep-09 20:33N 53°36' W 000°02'1212.2
2014-Sep-09 19:33N 53°44' W 000°16'0 0.4
2014-Sep-09 18:33N 53°45' W 000°16'0 0.0
2014-Sep-09 17:15N 53°45' W 000°16'0 0.0
2014-Sep-09 16:30N 53°45' W 000°16'0 0.0
2014-Sep-09 14:27N 53°45' W 000°16'0 0.0
2014-Sep-09 13:33N 53°45' W 000°16'0 0.0
2014-Sep-09 12:24N 53°45' W 000°16'0 0.0
2014-Sep-09 11:33N 53°45' W 000°16'0 0.0
2014-Sep-09 10:33N 53°45' W 000°16'0 0.0
2014-Sep-09 09:21N 53°45' W 000°16'0 0.0
2014-Sep-09 08:21N 53°45' W 000°16'0 0.0
2014-Sep-09 07:27N 53°45' W 000°16'0 0.0
2014-Sep-09 06:27N 53°45' W 000°16'0 0.0
2014-Sep-09 04:30N 53°45' W 000°16'0 0.0
2014-Sep-09 03:24N 53°45' W 000°16'0 0.0
2014-Sep-09 02:18N 53°45' W 000°16'0 0.0
2014-Sep-09 01:33N 53°45' W 000°16'0 0.0
2014-Sep-09 00:27N 53°45' W 000°16'0 0.0
2014-Sep-08 23:33N 53°45' W 000°16'0 0.0
2014-Sep-08 22:30N 53°45' W 000°16'0 0.0
2014-Sep-08 21:34N 53°45' W 000°16'0 0.0
2014-Sep-08 20:06N 53°45' W 000°16'0 0.0
2014-Sep-08 18:21N 53°45' W 000°16'0 0.0
2014-Sep-08 17:18N 53°45' W 000°16'0 0.0
2014-Sep-08 16:06N 53°45' W 000°16'0 0.0
2014-Sep-08 15:27N 53°45' W 000°16'0 0.0
2014-Sep-08 14:24N 53°45' W 000°16'0 0.0
2014-Sep-08 13:24N 53°45' W 000°16'0 0.0
2014-Sep-08 12:27N 53°45' W 000°16'0 0.0
2014-Sep-08 11:15N 53°45' W 000°16'0 0.0
2014-Sep-08 10:24N 53°45' W 000°16'0 0.0
2014-Sep-08 09:30N 53°45' W 000°16'0 0.0
2014-Sep-08 08:30N 53°45' W 000°16'0 0.0
2014-Sep-08 07:06N 53°45' W 000°16'0 0.0
2014-Sep-08 06:24N 53°45' W 000°16'0 0.0
2014-Sep-08 05:33N 53°45' W 000°16'0 0.0
2014-Sep-08 04:33N 53°45' W 000°16'0 0.0
2014-Sep-08 03:27N 53°45' W 000°16'0 0.0
2014-Sep-08 02:24N 53°45' W 000°16'0 0.0
2014-Sep-08 01:27N 53°45' W 000°16'0 0.0
2014-Sep-08 00:27N 53°45' W 000°16'0 0.0
2014-Sep-07 23:27N 53°45' W 000°16'0 0.0
2014-Sep-07 22:06N 53°45' W 000°16'0 0.0
2014-Sep-07 21:15N 53°45' W 000°16'0 0.0
2014-Sep-07 20:15N 53°45' W 000°16'0 0.0
2014-Sep-07 19:33N 53°45' W 000°16'0 0.0
2014-Sep-07 18:30N 53°45' W 000°16'0 0.0
2014-Sep-07 17:21N 53°45' W 000°16'0 0.0
2014-Sep-07 16:33N 53°45' W 000°16'0 0.0
2014-Sep-07 15:26N 53°45' W 000°16'0 0.0
2014-Sep-07 14:32N 53°45' W 000°16'0 0.2
2014-Sep-07 13:33N 53°45' W 000°16'2 2.0
2014-Sep-07 12:33N 53°43' W 000°14'1010.1
2014-Sep-07 11:33N 53°37' W 000°01'10 9.8
2014-Sep-07 10:34N 53°33' E 000°15'7 6.5
2014-Sep-07 09:34N 53°35' E 000°25'0 0.0
2014-Sep-07 08:34N 53°35' E 000°25'0 0.0
2014-Sep-07 07:34N 53°35' E 000°25'0 0.0
2014-Sep-07 06:33N 53°35' E 000°25'0 0.1
2014-Sep-07 05:34N 53°35' E 000°25'0 0.1
2014-Sep-07 04:33N 53°35' E 000°25'0 0.1
2014-Sep-07 03:34N 53°35' E 000°25'5 4.9
2014-Sep-07 02:33N 53°35' E 000°33'151 9.2
2014-Sep-06 10:09N 54°04' E 004°45'80 9.0
2014-Sep-06 01:19N 54°12' E 007°00'810.0
2014-Sep-06 00:33N 54°12' E 007°13'1010.2
2014-Sep-05 23:33N 54°13' E 007°31'1010.1
2014-Sep-05 22:33N 54°08' E 007°46'1010.0
2014-Sep-05 21:34N 54°03' E 008°00'10 9.7
2014-Sep-05 20:31N 53°60' E 008°17'1010.3
2014-Sep-05 19:33N 53°58' E 008°34'8 8.3
2014-Sep-05 18:34N 53°52' E 008°44'8 7.6
2014-Sep-05 17:33N 53°51' E 008°56'8 7.8
2014-Sep-05 16:33N 53°54' E 009°09'3 2.9
2014-Sep-05 15:33N 53°56' E 009°12'8 7.8
2014-Sep-05 14:33N 54°03' E 009°18'7 6.6
2014-Sep-05 13:33N 54°09' E 009°22'1 1.2
2014-Sep-05 12:32N 54°10' E 009°24'7 7.3
2014-Sep-05 11:32N 54°13' E 009°35'68 6.9
2014-Sep-05 01:33N 54°31' E 011°28'1110.7
2014-Sep-05 00:32N 54°27' E 011°45'1010.6
2014-Sep-04 23:33N 54°27' E 012°03'9 9.4
2014-Sep-04 22:33N 54°32' E 012°15'1110.9
2014-Sep-04 21:33N 54°37' E 012°32'1010.3
2014-Sep-04 20:34N 54°41' E 012°49'1110.5
2014-Sep-04 19:33N 54°42' E 013°07'1110.5
2014-Sep-04 18:33N 54°44' E 013°25'9 8.6
2014-Sep-04 17:34N 54°41' E 013°39'10 9.9
2014-Sep-04 16:34N 54°33' E 013°47'1010.0
2014-Sep-04 15:34N 54°23' E 013°51'7 6.9
2014-Sep-04 14:34N 54°17' E 013°45'8 8.2
2014-Sep-04 13:34N 54°11' E 013°35'3 3.3
2014-Sep-04 12:33N 54°08' E 013°34'0 0.0
2014-Sep-04 11:31N 54°08' E 013°34'0 0.0
2014-Sep-04 10:31N 54°08' E 013°34'0 0.0
2014-Sep-04 09:31N 54°08' E 013°34'0 0.0
2014-Sep-04 08:31N 54°08' E 013°34'0 0.0
2014-Sep-04 07:31N 54°08' E 013°34'0 0.0
2014-Sep-04 06:31N 54°08' E 013°34'0 0.0
2014-Sep-04 05:31N 54°08' E 013°34'0 0.0
2014-Sep-04 04:31N 54°08' E 013°34'0 0.0
2014-Sep-04 03:31N 54°08' E 013°34'0 0.0
2014-Sep-04 02:31N 54°08' E 013°34'0 0.0
2014-Sep-04 01:31N 54°08' E 013°34'0 0.0
2014-Sep-04 00:31N 54°08' E 013°34'0 0.0
2014-Sep-03 23:31N 54°08' E 013°34'0 0.0
2014-Sep-03 22:31N 54°08' E 013°34'0 0.0
2014-Sep-03 21:31N 54°08' E 013°34'0 0.0
2014-Sep-03 20:31N 54°08' E 013°34'  

Dump ship's entire track history